createdAt,value
2022-12-08T00:02:08.330Z,77.33
2022-12-08T00:07:28.568Z,78.00
2022-12-08T00:12:30.116Z,77.46
2022-12-08T00:17:31.718Z,77.44
2022-12-08T00:22:33.297Z,77.83
2022-12-08T00:27:34.930Z,76.91
2022-12-08T00:32:37.636Z,77.33
2022-12-08T00:37:39.177Z,77.59
2022-12-08T00:42:40.785Z,78.35
2022-12-08T00:47:42.375Z,77.58
2022-12-08T00:52:43.950Z,77.64
2022-12-08T00:57:45.546Z,77.92
2022-12-08T01:02:47.150Z,77.12
2022-12-08T01:07:49.435Z,77.14
2022-12-08T01:12:51.062Z,78.29
2022-12-08T01:17:52.631Z,77.59
2022-12-08T01:22:54.168Z,77.75
2022-12-08T01:27:55.746Z,78.03
2022-12-08T01:32:57.352Z,78.17
2022-12-08T01:37:58.976Z,78.11
2022-12-08T01:43:00.510Z,78.06
2022-12-08T01:48:09.074Z,77.79
2022-12-08T01:53:23.295Z,78.86
2022-12-08T01:58:32.057Z,78.22
2022-12-08T02:03:51.679Z,78.51
2022-12-08T02:08:55.151Z,78.76
2022-12-08T02:13:57.675Z,78.40
2022-12-08T02:19:33.251Z,79.08
2022-12-08T02:24:57.671Z,79.06
2022-12-08T02:30:14.348Z,79.53
2022-12-08T02:35:42.532Z,79.75
2022-12-08T02:40:59.331Z,80.27
2022-12-08T02:46:05.423Z,80.13
2022-12-08T02:51:06.997Z,79.27
2022-12-08T02:56:40.487Z,78.70
2022-12-08T03:02:17.946Z,78.21
2022-12-08T03:07:24.620Z,78.38
2022-12-08T03:12:28.641Z,78.13
2022-12-08T03:17:31.576Z,77.29
2022-12-08T03:22:33.368Z,76.94
2022-12-08T03:27:34.929Z,76.93
2022-12-08T03:33:00.676Z,77.03
2022-12-08T03:38:08.208Z,76.70
2022-12-08T03:43:09.977Z,76.66
2022-12-08T03:48:11.532Z,76.93
2022-12-08T03:53:13.072Z,77.02
2022-12-08T03:58:14.702Z,76.19
2022-12-08T04:03:16.323Z,76.58
2022-12-08T04:08:17.960Z,77.17
2022-12-08T04:13:19.632Z,76.82
2022-12-08T04:18:21.215Z,77.35
2022-12-08T04:23:23.104Z,77.51
2022-12-08T04:28:24.638Z,77.86
2022-12-08T04:33:26.548Z,77.23
2022-12-08T04:38:28.464Z,77.33
2022-12-08T04:43:30.242Z,78.25
2022-12-08T04:48:31.815Z,77.93
2022-12-08T04:53:33.736Z,79.16
2022-12-08T04:58:35.310Z,78.81
2022-12-08T05:03:36.864Z,78.16
2022-12-08T05:08:38.441Z,78.54
2022-12-08T05:13:40.036Z,78.61
2022-12-08T05:18:42.167Z,78.80
2022-12-08T05:23:44.059Z,79.70
2022-12-08T05:28:45.714Z,80.59
2022-12-08T05:33:49.311Z,79.70
2022-12-08T05:38:50.957Z,79.63
2022-12-08T05:43:52.568Z,80.65
2022-12-08T05:48:54.104Z,81.53
2022-12-08T05:53:56.148Z,80.15
2022-12-08T05:58:57.732Z,80.60
2022-12-08T06:04:01.037Z,79.60
2022-12-08T06:09:04.770Z,79.01
2022-12-08T06:14:10.987Z,79.26
2022-12-08T06:19:12.647Z,78.87
2022-12-08T06:24:14.620Z,78.83
2022-12-08T06:29:16.229Z,79.48
2022-12-08T06:34:17.844Z,79.88
2022-12-08T06:39:19.408Z,78.97
2022-12-08T06:44:21.058Z,78.89
2022-12-08T06:49:22.703Z,78.22
2022-12-08T06:54:24.302Z,78.55
2022-12-08T06:59:28.637Z,78.65
2022-12-08T07:04:30.226Z,78.10
2022-12-08T07:09:31.837Z,78.40
2022-12-08T07:14:33.428Z,78.43
2022-12-08T07:19:34.972Z,78.39
2022-12-08T07:24:36.520Z,78.81
2022-12-08T07:29:38.064Z,77.94
2022-12-08T07:34:39.599Z,78.55
2022-12-08T07:39:41.187Z,78.42
2022-12-08T07:44:42.770Z,78.45
2022-12-08T07:49:44.298Z,78.96
2022-12-08T07:54:45.838Z,79.12
2022-12-08T07:59:47.495Z,79.44
2022-12-08T08:04:52.048Z,78.63
2022-12-08T08:09:53.697Z,78.25
2022-12-08T08:14:55.306Z,78.66
2022-12-08T08:19:57.134Z,78.83
2022-12-08T08:24:58.725Z,78.90
2022-12-08T08:30:00.338Z,78.95
2022-12-08T08:35:03.028Z,79.13
2022-12-08T08:40:05.624Z,78.74
2022-12-08T08:45:07.875Z,78.64
2022-12-08T08:50:09.725Z,78.29
2022-12-08T08:55:12.078Z,78.71
2022-12-08T09:00:14.372Z,78.33
2022-12-08T09:05:16.782Z,78.34
2022-12-08T09:10:18.451Z,78.39
2022-12-08T09:15:20.750Z,78.43
2022-12-08T09:20:22.341Z,77.78
2022-12-08T09:25:23.935Z,77.74
2022-12-08T09:30:25.518Z,76.97
2022-12-08T09:35:27.083Z,76.86
2022-12-08T09:40:30.086Z,76.51
2022-12-08T09:45:34.747Z,75.93
2022-12-08T09:50:52.643Z,75.64
2022-12-08T09:55:58.015Z,75.43
2022-12-08T10:00:59.822Z,74.75
2022-12-08T10:06:08.899Z,74.41
2022-12-08T10:11:42.203Z,74.16
2022-12-08T10:16:48.595Z,73.56
2022-12-08T10:21:51.355Z,73.25
2022-12-08T10:26:53.925Z,72.13
2022-12-08T10:31:59.860Z,72.07
2022-12-08T10:37:09.559Z,72.31
2022-12-08T10:42:14.219Z,72.11
2022-12-08T10:47:15.834Z,71.69
2022-12-08T10:52:23.549Z,69.57
2022-12-08T10:57:25.407Z,69.10
2022-12-08T11:02:27.074Z,69.24
2022-12-08T11:07:28.827Z,69.72
2022-12-08T11:12:31.363Z,69.00
2022-12-08T11:17:39.396Z,68.80
2022-12-08T11:22:43.200Z,68.04
2022-12-08T11:27:47.639Z,68.40
2022-12-08T11:32:52.446Z,67.96
2022-12-08T11:38:07.868Z,67.73
2022-12-08T11:43:24.166Z,67.51
2022-12-08T11:48:47.874Z,67.75
2022-12-08T11:53:49.463Z,66.48
2022-12-08T11:58:56.168Z,66.25
2022-12-08T12:04:03.495Z,66.03
2022-12-08T12:09:36.368Z,65.82
2022-12-08T12:14:46.720Z,65.61
2022-12-08T12:19:48.532Z,65.58
2022-12-08T12:24:51.620Z,65.29
2022-12-08T12:30:06.427Z,65.39
2022-12-08T12:35:15.849Z,65.46
2022-12-08T12:40:19.654Z,65.07
2022-12-08T12:45:21.138Z,65.37
2022-12-08T12:50:34.658Z,65.59
2022-12-08T12:55:45.329Z,65.77
2022-12-08T13:00:46.946Z,65.54
2022-12-08T13:05:53.007Z,65.39
2022-12-08T13:11:07.035Z,65.67
2022-12-08T13:16:18.496Z,65.16
2022-12-08T13:21:23.035Z,65.50
2022-12-08T13:26:26.128Z,65.53
2022-12-08T13:31:46.608Z,65.79
2022-12-08T13:37:08.236Z,65.23
2022-12-08T13:42:12.547Z,65.77
2022-12-08T13:47:35.949Z,65.40
2022-12-08T13:58:06.184Z,65.94
2022-12-08T14:03:11.249Z,65.70
2022-12-08T14:09:00.090Z,66.24
2022-12-08T14:13:54.911Z,65.86
2022-12-08T14:19:04.852Z,66.43
2022-12-08T14:24:06.531Z,66.36
2022-12-08T14:29:09.686Z,66.31
2022-12-08T14:34:12.138Z,66.29
2022-12-08T14:39:13.776Z,66.22
2022-12-08T14:44:23.781Z,66.49
2022-12-08T14:49:33.396Z,66.01
2022-12-08T14:54:35.455Z,66.11
2022-12-08T14:59:38.135Z,66.86
2022-12-08T15:04:42.561Z,66.38
2022-12-08T15:09:50.201Z,66.53
2022-12-08T15:15:13.873Z,66.39
2022-12-08T15:20:40.655Z,67.10
2022-12-08T15:25:42.237Z,67.61
2022-12-08T15:30:43.925Z,67.58
2022-12-08T15:35:46.690Z,68.37
2022-12-08T15:40:48.312Z,68.23
2022-12-08T15:45:58.435Z,68.72
2022-12-08T15:51:00.836Z,68.74
2022-12-08T16:01:28.488Z,68.70
2022-12-08T16:12:10.743Z,69.10
2022-12-08T16:17:16.641Z,68.98
2022-12-08T16:33:03.890Z,68.47
2022-12-08T16:38:05.608Z,67.93
2022-12-08T16:43:08.929Z,67.88
2022-12-08T16:48:13.846Z,67.97
2022-12-08T16:53:15.414Z,67.64
2022-12-08T16:58:18.439Z,68.05
2022-12-08T17:03:20.016Z,67.32
2022-12-08T17:08:21.655Z,67.63
2022-12-08T17:13:23.301Z,67.31
2022-12-08T17:18:24.874Z,67.17
2022-12-08T17:23:26.495Z,67.19
2022-12-08T17:28:58.331Z,67.10
2022-12-08T17:33:50.091Z,67.38
2022-12-08T17:38:51.636Z,68.09
2022-12-08T17:43:53.235Z,67.32
2022-12-08T17:48:54.808Z,67.51
2022-12-08T17:53:56.414Z,67.62
2022-12-08T17:58:58.093Z,67.99
2022-12-08T18:04:03.534Z,67.99
2022-12-08T18:09:06.857Z,67.63
2022-12-08T18:14:11.857Z,67.89
2022-12-08T18:19:14.468Z,67.96
2022-12-08T18:24:19.058Z,68.25
2022-12-08T18:29:21.784Z,67.74
2022-12-08T18:34:23.352Z,67.96
2022-12-08T18:39:30.530Z,68.53
2022-12-08T18:44:32.097Z,68.30
2022-12-08T18:49:33.697Z,68.64
2022-12-08T18:54:58.042Z,68.74
2022-12-08T18:59:56.980Z,68.44
2022-12-08T19:04:58.565Z,68.57
2022-12-08T19:10:00.146Z,68.41
2022-12-08T19:15:01.822Z,68.35
2022-12-08T19:20:05.080Z,69.00
2022-12-08T19:25:07.415Z,68.56
2022-12-08T19:30:10.357Z,67.80
2022-12-08T19:35:12.099Z,67.84
2022-12-08T19:40:32.625Z,67.53
2022-12-08T19:45:35.525Z,67.50
2022-12-08T19:50:37.382Z,67.45
2022-12-08T19:55:39.217Z,66.83
2022-12-08T20:00:41.377Z,67.26
2022-12-08T20:05:43.522Z,67.96
2022-12-08T20:10:45.757Z,67.51
2022-12-08T20:15:47.486Z,67.16
2022-12-08T20:20:49.166Z,67.04
2022-12-08T20:25:50.826Z,66.90
2022-12-08T20:30:52.486Z,67.21
2022-12-08T20:36:07.919Z,67.95
2022-12-08T20:41:09.773Z,69.04
2022-12-08T20:46:13.486Z,68.86
2022-12-08T20:51:17.214Z,69.82
2022-12-08T20:56:21.395Z,70.38
2022-12-08T21:01:24.318Z,71.17
2022-12-08T21:06:29.639Z,71.87
2022-12-08T21:11:31.443Z,71.54
2022-12-08T21:16:33.370Z,72.57
2022-12-08T21:21:35.515Z,72.98
2022-12-08T21:26:37.743Z,73.51
2022-12-08T21:31:39.831Z,75.35
2022-12-08T21:36:41.765Z,74.78
2022-12-08T21:42:02.566Z,74.50
2022-12-08T21:47:05.083Z,75.83
2022-12-08T21:52:07.317Z,76.28
2022-12-08T21:57:08.989Z,76.80
2022-12-08T22:02:19.464Z,77.74
2022-12-08T22:07:23.760Z,77.46
2022-12-08T22:12:25.454Z,77.81
2022-12-08T22:17:27.250Z,77.49
2022-12-08T22:22:29.178Z,77.69
2022-12-08T22:27:30.873Z,78.40
2022-12-08T22:32:32.702Z,79.13
2022-12-08T22:37:34.407Z,78.44
2022-12-08T22:42:36.158Z,79.09
2022-12-08T22:47:37.869Z,79.40
2022-12-08T22:52:39.664Z,79.67
2022-12-08T22:57:43.658Z,78.86
2022-12-08T23:02:45.556Z,79.13
2022-12-08T23:07:47.463Z,79.19
2022-12-08T23:12:49.132Z,79.97
2022-12-08T23:17:50.805Z,79.28
2022-12-08T23:22:52.961Z,80.15
2022-12-08T23:27:54.763Z,79.30
2022-12-08T23:32:56.616Z,79.28
2022-12-08T23:37:58.213Z,79.77
2022-12-08T23:42:59.798Z,80.50
2022-12-08T23:48:01.517Z,79.87
2022-12-08T23:53:03.338Z,79.27
2022-12-08T23:58:05.130Z,78.86
